Appleton, New York
Current Conditions -  °F | °C
As of 3:53 PM on Wednesday 26 Nov 2014 (Local Time) from KIAG Reporting Station
Light Snow Light Snow  
Wind Chill: -4°   Ceiling: 1100
Heat Index:   Visibility: 8mi
Dew Point: -1°   Wind: 12mph
Humidity: 89%   Direction: 50°NE
Pressure: 30.09"   Gusts: NA
Location:  43.33°N, 78.65°W
Report Text: KIAG 262053Z 05010KT 8SM -SN BKN011 OVC030 01/M01 A3009 RMK AO2 SLP203 P0000 60000 T00061011 58013
Loading
Personal Weather Stations






























Interactive Weather Map New forecast layout! Learn more

10-Day Weather Forecast

Advertisements
Track Severe Weather on mobile